Time;durP1;ratioP1;P1;durP2;ratioP2;P2;SDS_P1;SDS_P2;PMS_P1;PMS_P2;Temp;Humidity;BMP_temperature;BMP_pressure;BME280_temperature;BME280_humidity;BME280_pressure;Samples;Min_cycle;Max_cycle;Signal;HPM_P1;HPM_P2
2023/06/11 00:02:11;;;;;;;1.20;1.10;;;;;;;16.99;100.00;97405.53;1697505;75;1754505;-72
2023/06/11 00:04:45;;;;;;;2.10;1.70;;;;;;;16.90;100.00;97410.72;1700784;75;746643;-69
2023/06/11 00:07:15;;;;;;;1.20;1.10;;;;;;;17.02;100.00;97404.47;1708678;75;698944;-69
2023/06/11 00:09:45;;;;;;;1.75;1.50;;;;;;;17.02;100.00;97398.94;1700865;75;754160;-73
2023/06/11 00:12:16;;;;;;;2.05;1.60;;;;;;;16.88;100.00;97411.22;1709271;75;751676;-72
2023/06/11 00:14:48;;;;;;;2.40;1.80;;;;;;;16.82;100.00;97405.78;1700927;75;755077;-73
2023/06/11 00:17:18;;;;;;;2.40;2.20;;;;;;;16.79;100.00;97406.09;1709252;75;677008;-72
2023/06/11 00:19:50;;;;;;;2.00;1.80;;;;;;;16.87;100.00;97401.44;1703001;75;745731;-73
2023/06/11 00:22:20;;;;;;;2.50;2.10;;;;;;;16.74;100.00;97395.81;1711324;75;671952;-71
2023/06/11 00:24:50;;;;;;;2.10;1.90;;;;;;;16.84;100.00;97402.50;1702437;75;739402;-72
2023/06/11 00:27:20;;;;;;;2.00;1.80;;;;;;;16.82;100.00;97403.00;1709951;75;670235;-69
2023/06/11 00:29:55;;;;;;;2.20;1.85;;;;;;;16.80;100.00;97408.31;1701045;75;746499;-72
2023/06/11 00:32:25;;;;;;;1.70;1.60;;;;;;;16.78;100.00;97405.31;1683679;75;2892730;-74
2023/06/11 00:34:56;;;;;;;1.60;1.50;;;;;;;16.85;100.00;97406.75;1700367;75;753619;-72
2023/06/11 00:37:26;;;;;;;1.65;1.55;;;;;;;16.76;100.00;97402.34;1709338;75;676803;-74
2023/06/11 00:39:56;;;;;;;1.60;1.50;;;;;;;16.72;100.00;97398.38;1701218;75;746365;-73
2023/06/11 00:42:27;;;;;;;2.35;1.90;;;;;;;16.63;100.00;97396.72;1709379;75;690347;-75
2023/06/11 00:45:01;;;;;;;1.30;1.20;;;;;;;16.70;100.00;97403.69;1687475;75;1819451;-70
2023/06/11 00:47:32;;;;;;;2.95;2.20;;;;;;;16.54;100.00;97395.06;1709251;75;673768;-70
2023/06/11 00:50:02;;;;;;;1.95;1.80;;;;;;;16.56;100.00;97402.84;1701152;75;743713;-71
2023/06/11 00:52:33;;;;;;;2.10;1.90;;;;;;;16.59;100.00;97402.53;1709334;75;675006;-71
2023/06/11 00:55:03;;;;;;;1.65;1.55;;;;;;;16.67;100.00;97402.72;1700526;75;743012;-72
2023/06/11 00:57:35;;;;;;;3.90;2.20;;;;;;;16.50;100.00;97402.94;1709290;75;675176;-73
2023/06/11 01:00:12;;;;;;;2.80;2.20;;;;;;;16.45;100.00;97398.22;1698766;75;898302;-73
2023/06/11 01:02:51;;;;;;;3.50;2.35;;;;;;;16.60;100.00;97400.53;1701417;75;675378;-72
2023/06/11 01:05:24;;;;;;;1.80;1.70;;;;;;;16.51;100.00;97396.13;1709142;75;681461;-70
2023/06/11 01:07:57;;;;;;;1.70;1.60;;;;;;;16.65;100.00;97398.97;1700540;75;674905;-72
2023/06/11 01:10:29;;;;;;;1.50;1.40;;;;;;;16.64;100.00;97403.00;1710374;75;670427;-70
2023/06/11 01:13:01;;;;;;;1.40;1.30;;;;;;;16.74;100.00;97407.63;1697737;75;982964;-73
2023/06/11 01:15:34;;;;;;;1.30;1.20;;;;;;;16.72;100.00;97418.47;1709626;75;670497;-73
2023/06/11 01:18:12;;;;;;;1.30;1.20;;;;;;;16.65;100.00;97401.75;1700975;75;728637;-74
2023/06/11 01:20:50;;;;;;;1.20;1.10;;;;;;;16.71;100.00;97408.66;1701608;75;676404;-75
2023/06/11 01:23:31;;;;;;;1.90;1.50;;;;;;;16.63;100.00;97409.81;1707401;75;863040;-71
2023/06/11 01:26:32;;;;;;;1.40;1.30;;;;;;;16.68;100.00;97401.44;1701223;75;684449;-72
2023/06/11 01:29:07;;;;;;;1.60;1.50;;;;;;;16.54;100.00;97408.16;1701914;75;671097;-73
2023/06/11 01:31:43;;;;;;;1.40;1.30;;;;;;;16.62;100.00;97398.00;1709849;75;674723;-72
2023/06/11 01:34:13;;;;;;;1.50;1.40;;;;;;;16.67;100.00;97394.41;1700836;75;751518;-70
2023/06/11 01:36:43;;;;;;;1.40;1.20;;;;;;;16.67;100.00;97399.94;1708844;75;669980;-70
2023/06/11 01:39:13;;;;;;;3.05;2.00;;;;;;;16.49;100.00;97403.44;1700641;75;755079;-70
2023/06/11 01:41:44;;;;;;;2.45;2.25;;;;;;;16.49;100.00;97397.91;1709757;75;678948;-71
2023/06/11 01:44:19;;;;;;;2.05;1.85;;;;;;;16.59;100.00;97402.53;1701090;75;751481;-73
2023/06/11 01:46:50;;;;;;;1.75;1.35;;;;;;;16.60;100.00;97401.28;1701231;75;680901;-70
2023/06/11 01:49:23;;;;;;;1.40;1.25;;;;;;;16.66;100.00;97403.22;1709923;75;672105;-74
2023/06/11 01:51:53;;;;;;;1.30;1.20;;;;;;;16.61;100.00;97397.25;1702264;75;687063;-72
2023/06/11 01:54:23;;;;;;;1.30;1.20;;;;;;;16.52;100.00;97397.59;1695881;75;1879351;-73
2023/06/11 01:56:53;;;;;;;1.20;1.10;;;;;;;16.64;100.00;97398.22;1702009;75;673699;-74
2023/06/11 01:59:27;;;;;;;1.10;1.00;;;;;;;16.67;100.00;97390.88;1710689;75;668167;-72
2023/06/11 02:01:57;;;;;;;0.90;0.90;;;;;;;16.67;100.00;97388.13;1702424;75;682271;-74
2023/06/11 02:04:27;;;;;;;1.10;1.00;;;;;;;16.66;100.00;97389.41;1709741;75;673483;-72
2023/06/11 02:06:57;;;;;;;1.20;1.10;;;;;;;16.67;100.00;97388.88;1702069;75;674562;-70
2023/06/11 02:09:28;;;;;;;1.10;1.00;;;;;;;16.67;100.00;97388.13;1709276;75;776451;-71
2023/06/11 02:11:58;;;;;;;1.00;0.90;;;;;;;16.67;100.00;97393.66;1698364;75;974720;-73
2023/06/11 02:14:31;;;;;;;2.00;1.05;;;;;;;16.57;100.00;97388.53;1710186;75;672167;-71
2023/06/11 02:17:01;;;;;;;1.60;1.20;;;;;;;16.66;100.00;97397.69;1701736;75;683619;-75
2023/06/11 02:19:31;;;;;;;1.10;1.00;;;;;;;16.66;100.00;97392.91;1705768;75;957952;-71
2023/06/11 02:22:01;;;;;;;1.20;1.10;;;;;;;16.64;100.00;97389.19;1700491;75;851816;-74
2023/06/11 02:24:31;;;;;;;1.10;1.00;;;;;;;16.66;100.00;97389.41;1710109;75;665443;-75
2023/06/11 02:27:01;;;;;;;1.10;1.00;;;;;;;16.65;100.00;97385.91;1701792;75;678865;-73
2023/06/11 02:29:34;;;;;;;1.20;0.90;;;;;;;16.68;100.00;97386.88;1709794;75;672353;-70
2023/06/11 02:32:04;;;;;;;0.90;0.90;;;;;;;16.65;100.00;97396.22;1701790;75;737451;-71
2023/06/11 02:34:35;;;;;;;1.30;1.20;;;;;;;16.64;100.00;97380.88;1709929;75;674292;-72
2023/06/11 02:37:05;;;;;;;1.25;1.15;;;;;;;16.58;100.00;97387.25;1701167;75;684019;-70
2023/06/11 02:39:35;;;;;;;1.20;1.10;;;;;;;16.63;100.00;97387.69;1709836;75;674648;-74
2023/06/11 02:42:06;;;;;;;1.70;1.40;;;;;;;16.53;100.00;97388.06;1688480;75;1838556;-73
2023/06/11 02:44:39;;;;;;;4.15;3.75;;;;;;;16.12;100.00;97386.31;1709616;75;674985;-75
2023/06/11 02:47:09;;;;;;;3.65;3.35;;;;;;;16.32;100.00;97393.34;1700687;75;681085;-72
2023/06/11 02:49:40;;;;;;;2.70;2.40;;;;;;;16.48;100.00;97385.38;1710106;75;680820;-73
2023/06/11 02:52:10;;;;;;;2.30;2.10;;;;;;;16.49;100.00;97392.38;1702447;75;671593;-73
2023/06/11 02:54:40;;;;;;;2.30;2.00;;;;;;;16.40;100.00;97394.25;1709453;75;683098;-75
2023/06/11 02:57:11;;;;;;;1.70;1.60;;;;;;;16.43;100.00;97391.72;1701876;75;675366;-72
2023/06/11 02:59:43;;;;;;;2.65;1.70;;;;;;;16.37;100.00;97384.25;1710528;75;667863;-73
2023/06/11 03:02:14;;;;;;;2.00;1.60;;;;;;;16.42;100.00;97390.22;1701346;75;703264;-71
2023/06/11 03:04:44;;;;;;;1.50;1.40;;;;;;;16.45;100.00;97389.94;1710484;75;671943;-70
2023/06/11 03:07:14;;;;;;;1.30;1.20;;;;;;;16.46;100.00;97393.44;1700269;75;751051;-69
2023/06/11 03:09:47;;;;;;;1.90;1.60;;;;;;;16.42;100.00;97392.97;1710002;75;674550;-71
2023/06/11 03:12:17;;;;;;;1.40;1.30;;;;;;;16.45;100.00;97386.41;1701063;75;742214;-71
2023/06/11 03:14:50;;;;;;;1.40;1.30;;;;;;;16.43;100.00;97392.47;1710437;75;675530;-72
2023/06/11 03:17:21;;;;;;;1.40;1.30;;;;;;;16.42;100.00;97393.72;1701644;75;749264;-71
2023/06/11 03:19:51;;;;;;;1.40;1.30;;;;;;;16.35;100.00;97392.28;1710548;75;677114;-70
2023/06/11 03:22:21;;;;;;;2.50;1.90;;;;;;;16.28;100.00;97397.66;1700818;75;746655;-72
2023/06/11 03:24:51;;;;;;;2.40;1.70;;;;;;;16.34;100.00;97403.88;1709507;75;672213;-76
2023/06/11 03:27:21;;;;;;;2.35;2.10;;;;;;;16.15;100.00;97399.06;1700531;75;740867;-74
2023/06/11 03:29:54;;;;;;;3.30;2.80;;;;;;;16.22;100.00;97399.78;1709395;75;681000;-76
2023/06/11 03:32:24;;;;;;;4.30;2.80;;;;;;;16.21;100.00;97398.25;1699816;75;810908;-75
2023/06/11 03:34:54;;;;;;;4.25;2.90;;;;;;;16.22;100.00;97406.03;1707290;75;844868;-73
2023/06/11 03:37:25;;;;;;;2.90;2.60;;;;;;;16.34;100.00;97406.66;1699526;75;770100;-72
2023/06/11 03:39:55;;;;;;;2.30;2.10;;;;;;;16.37;100.00;97408.38;1709597;75;677161;-71
2023/06/11 03:42:28;;;;;;;1.90;1.80;;;;;;;16.40;100.00;97410.84;1700308;75;764772;-76
2023/06/11 03:45:01;;;;;;;2.10;1.90;;;;;;;16.40;100.00;97415.59;1697628;75;1722715;-72
2023/06/11 03:47:31;;;;;;;1.60;1.50;;;;;;;16.43;100.00;97406.28;1700618;75;755709;-73
2023/06/11 03:50:04;;;;;;;1.90;1.60;;;;;;;16.49;100.00;97417.25;1706748;75;936564;-72
2023/06/11 03:52:34;;;;;;;2.00;1.65;;;;;;;16.48;100.00;97413.75;1700792;75;756095;-73
2023/06/11 03:55:04;;;;;;;1.60;1.40;;;;;;;16.51;100.00;97411.97;1709592;75;670703;-73
2023/06/11 03:57:34;;;;;;;1.70;1.30;;;;;;;16.58;100.00;97416.91;1697160;75;961897;-72
2023/06/11 04:00:10;;;;;;;1.60;1.50;;;;;;;16.53;100.00;97412.94;1709842;75;677478;-73
2023/06/11 04:02:41;;;;;;;1.40;1.30;;;;;;;16.62;100.00;97414.59;1701133;75;738216;-72
2023/06/11 04:05:12;;;;;;;1.20;1.10;;;;;;;16.68;100.00;97418.00;1708083;75;815762;-71
2023/06/11 04:07:42;;;;;;;1.65;1.55;;;;;;;16.67;100.00;97421.28;1700065;75;747350;-75
2023/06/11 04:10:13;;;;;;;1.65;1.50;;;;;;;16.70;100.00;97426.53;1709515;75;751907;-72
2023/06/11 04:12:43;;;;;;;1.50;1.40;;;;;;;16.73;100.00;97428.25;1700930;75;747344;-72
2023/06/11 04:15:16;;;;;;;1.60;1.50;;;;;;;16.74;100.00;97426.22;1697740;75;1685687;-72
2023/06/11 04:17:48;;;;;;;1.60;1.50;;;;;;;16.74;100.00;97426.22;1700279;75;741496;-70
2023/06/11 04:20:18;;;;;;;1.40;1.30;;;;;;;16.81;100.00;97422.88;1711422;75;669923;-69
2023/06/11 04:22:48;;;;;;;1.55;1.45;;;;;;;16.81;100.00;97426.41;1702221;75;743559;-72
2023/06/11 04:25:19;;;;;;;3.60;3.10;;;;;;;16.48;100.00;97430.34;1710312;75;676447;-70
2023/06/11 04:27:52;;;;;;;4.60;4.10;;;;;;;16.42;100.00;97426.88;1700604;75;763052;-72
2023/06/11 04:30:26;;;;;;;6.00;5.40;;;;;;;16.15;100.00;97432.22;1709196;75;687044;-72
2023/06/11 04:32:57;;;;;;;6.35;5.60;;;;;;;16.34;100.00;97428.75;1676159;75;2778900;-73
2023/06/11 04:35:28;;;;;;;5.30;4.80;;;;;;;16.32;100.00;97426.50;1709010;75;673178;-74
2023/06/11 04:37:58;;;;;;;4.75;4.35;;;;;;;16.38;100.00;97429.22;1699256;75;738006;-72
2023/06/11 04:40:28;;;;;;;3.60;3.30;;;;;;;16.72;100.00;97442.59;1709419;75;738987;-71
2023/06/11 04:42:59;;;;;;;4.50;3.60;;;;;;;16.64;100.00;97431.38;1698714;75;900570;-72
2023/06/11 04:45:34;;;;;;;4.25;3.85;;;;;;;16.53;100.00;97432.28;1697696;75;1684871;-72
2023/06/11 04:48:04;;;;;;;5.10;4.60;;;;;;;16.69;100.00;97429.81;1699761;75;800819;-74
2023/06/11 04:50:36;;;;;;;6.45;4.45;;;;;;;16.70;100.00;97434.09;1709578;75;670645;-73
2023/06/11 04:53:07;;;;;;;5.70;5.20;;;;;;;16.57;100.00;97432.75;1700279;75;751714;-77
2023/06/11 04:55:38;;;;;;;6.30;5.30;;;;;;;16.57;100.00;97440.25;1708220;75;740232;-76
2023/06/11 04:58:09;;;;;;;5.10;4.55;;;;;;;16.63;100.00;97434.69;1699035;75;747058;-74
2023/06/11 05:00:42;;;;;;;4.50;4.10;;;;;;;16.78;100.00;97430.22;1709012;75;725169;-73
2023/06/11 05:03:12;;;;;;;4.60;3.90;;;;;;;16.96;100.00;97427.97;1697654;75;940673;-72
2023/06/11 05:05:43;;;;;;;4.80;4.40;;;;;;;16.83;100.00;97425.88;1694887;75;1914170;-73
2023/06/11 05:08:13;;;;;;;4.30;3.90;;;;;;;17.06;100.00;97431.09;1696769;75;946803;-73
2023/06/11 05:10:43;;;;;;;2.90;2.70;;;;;;;17.21;100.00;97431.38;1709778;75;671203;-72
2023/06/11 05:13:13;;;;;;;3.25;2.95;;;;;;;17.32;100.00;97433.19;1698775;75;818492;-72
2023/06/11 05:15:48;;;;;;;3.30;3.00;;;;;;;17.35;100.00;97429.41;1707438;75;860442;-72
2023/06/11 05:18:18;;;;;;;3.50;3.20;;;;;;;17.34;100.00;97436.97;1696635;75;935254;-71
2023/06/11 05:20:48;;;;;;;2.70;2.50;;;;;;;17.59;100.00;97437.53;1709182;75;670302;-71
2023/06/11 05:23:18;;;;;;;2.70;2.40;;;;;;;17.62;100.00;97438.50;1684913;75;1974796;-76
2023/06/11 05:25:50;;;;;;;2.10;1.90;;;;;;;17.71;100.00;97440.13;1684447;75;2764335;-72
2023/06/11 05:28:20;;;;;;;3.20;2.80;;;;;;;17.72;100.00;97438.84;1696683;75;919021;-71
2023/06/11 05:30:54;;;;;;;3.20;2.90;;;;;;;17.78;100.00;97439.50;1708491;75;677064;-71
2023/06/11 05:33:26;;;;;;;3.80;3.50;;;;;;;17.81;100.00;97446.78;1696944;75;977170;-72
2023/06/11 05:35:56;;;;;;;3.55;3.20;;;;;;;17.88;100.00;97444.13;1708840;75;689498;-72
2023/06/11 05:38:28;;;;;;;4.30;3.90;;;;;;;17.80;100.00;97454.34;1685411;75;1962409;-71
2023/06/11 05:40:59;;;;;;;6.60;5.80;;;;;;;17.94;100.00;97443.25;1709824;75;671246;-72
2023/06/11 05:43:29;;;;;;;5.70;5.20;;;;;;;17.99;100.00;97448.72;1700386;75;735618;-73
2023/06/11 05:46:02;;;;;;;5.10;4.60;;;;;;;18.08;100.00;97453.81;1708433;75;697958;-73
2023/06/11 05:48:35;;;;;;;5.30;4.80;;;;;;;18.05;100.00;97456.91;1699912;75;749034;-75
2023/06/11 05:51:06;;;;;;;4.80;4.30;;;;;;;18.01;100.00;97454.44;1709778;75;673163;-73
2023/06/11 05:53:36;;;;;;;4.70;4.20;;;;;;;18.08;100.00;97464.91;1698101;75;905889;-73
2023/06/11 05:56:06;;;;;;;4.55;4.15;;;;;;;18.27;100.00;97464.06;1708548;75;671488;-72
2023/06/11 05:58:38;;;;;;;3.60;3.30;;;;;;;18.30;100.00;97468.53;1687323;75;1787406;-70
2023/06/11 06:01:12;;;;;;;4.10;3.70;;;;;;;18.29;100.00;97464.28;1706221;75;899367;-72
2023/06/11 06:03:42;;;;;;;4.70;4.20;;;;;;;18.30;100.00;97468.53;1699992;75;805111;-74
2023/06/11 06:06:12;;;;;;;7.30;6.60;;;;;;;18.20;100.00;97468.22;1709205;75;672498;-70
2023/06/11 06:08:42;;;;;;;7.65;6.60;;;;;;;18.14;100.00;97459.28;1701226;75;752898;-72
2023/06/11 06:11:13;;;;;;;5.40;4.90;;;;;;;18.21;100.00;97464.19;1708433;75;826814;-71
2023/06/11 06:13:43;;;;;;;4.80;4.20;;;;;;;18.15;100.00;97465.56;1701428;75;749691;-74
2023/06/11 06:16:16;;;;;;;4.20;3.80;;;;;;;18.37;100.00;97472.69;1708565;75;711960;-73
2023/06/11 06:18:47;;;;;;;5.65;4.95;;;;;;;18.26;100.00;97474.41;1701238;75;719190;-72
2023/06/11 06:21:17;;;;;;;6.50;5.20;;;;;;;18.22;100.00;97467.69;1709656;75;678199;-75
2023/06/11 06:23:47;;;;;;;6.50;5.90;;;;;;;18.20;100.00;97473.75;1699537;75;780064;-75
2023/06/11 06:26:17;;;;;;;6.10;4.95;;;;;;;18.36;100.00;97479.53;1708602;75;672759;-73
2023/06/11 06:28:47;;;;;;;4.60;4.10;;;;;;;18.29;100.00;97481.66;1700765;75;745730;-74
2023/06/11 06:31:22;;;;;;;4.35;3.95;;;;;;;18.36;100.00;97485.06;1709361;75;674542;-74
2023/06/11 06:33:53;;;;;;;3.60;3.30;;;;;;;18.51;100.00;97486.00;1700246;75;739300;-69
2023/06/11 06:36:23;;;;;;;5.50;4.00;;;;;;;18.29;100.00;97492.72;1708314;75;669708;-72
2023/06/11 06:38:53;;;;;;;5.05;4.30;;;;;;;18.27;100.00;97492.50;1699670;75;748352;-75
2023/06/11 06:41:23;;;;;;;4.75;4.30;;;;;;;18.46;100.00;97489.63;1710101;75;675840;-70
2023/06/11 06:43:54;;;;;;;6.10;5.50;;;;;;;18.41;100.00;97487.72;1617668;75;7690384;-71
2023/06/11 06:46:26;;;;;;;6.70;4.50;;;;;;;18.35;100.00;97487.09;1709006;75;679041;-71
2023/06/11 06:48:57;;;;;;;4.50;4.10;;;;;;;18.43;100.00;97490.72;1700053;75;739115;-74
2023/06/11 06:51:27;;;;;;;4.90;4.20;;;;;;;18.57;100.00;97494.22;1709222;75;734190;-72
2023/06/11 06:53:57;;;;;;;4.15;3.75;;;;;;;18.68;100.00;97490.47;1701181;75;751866;-72
2023/06/11 06:56:27;;;;;;;3.85;3.50;;;;;;;18.70;100.00;97496.97;1708864;75;685818;-72
2023/06/11 06:58:57;;;;;;;5.40;4.65;;;;;;;18.68;100.00;97501.56;1700252;75;747695;-71
2023/06/11 07:01:30;;;;;;;5.90;4.80;;;;;;;18.67;100.00;97503.59;1709183;75;670489;-73
2023/06/11 07:04:01;;;;;;;5.30;4.60;;;;;;;18.73;100.00;97504.22;1701131;75;759092;-70
2023/06/11 07:06:32;;;;;;;5.00;4.50;;;;;;;18.71;100.00;97506.03;1708796;75;670299;-73
2023/06/11 07:09:03;;;;;;;5.50;5.00;;;;;;;18.80;100.00;97505.63;1699961;75;758964;-75
2023/06/11 07:11:33;;;;;;;12.20;10.90;;;;;;;19.02;100.00;97509.97;1708686;75;694427;-73
2023/06/11 07:14:05;;;;;;;10.65;9.55;;;;;;;19.09;100.00;97517.63;1700709;75;745648;-74
2023/06/11 07:16:38;;;;;;;11.40;10.20;;;;;;;19.15;100.00;97509.19;1708635;75;669260;-72
2023/06/11 07:19:08;;;;;;;6.95;6.25;;;;;;;19.12;100.00;97519.34;1700381;75;745353;-73
2023/06/11 07:21:39;;;;;;;6.80;5.55;;;;;;;19.15;100.00;97521.03;1708597;75;711048;-71
2023/06/11 07:24:09;;;;;;;4.85;4.45;;;;;;;19.30;100.00;97517.69;1699581;75;806543;-73
2023/06/11 07:26:40;;;;;;;5.50;5.00;;;;;;;19.15;100.00;97518.25;1707983;75;677122;-73
2023/06/11 07:29:10;;;;;;;5.40;4.85;;;;;;;19.12;100.00;97515.81;1700913;75;743611;-72
2023/06/11 07:31:43;;;;;;;55.70;50.70;;;;;;;19.25;100.00;97512.25;1672812;75;3863271;-70
2023/06/11 07:34:15;;;;;;;19.80;17.80;;;;;;;19.36;100.00;97517.53;1701843;75;753271;-71
2023/06/11 07:36:45;;;;;;;11.30;10.30;;;;;;;19.23;100.00;97523.16;1709741;75;676748;-72
2023/06/11 07:39:15;;;;;;;7.65;7.00;;;;;;;19.19;100.00;97515.16;1700263;75;762475;-72
2023/06/11 07:41:45;;;;;;;7.40;6.70;;;;;;;19.28;100.00;97514.69;1709596;75;683190;-67
2023/06/11 07:44:15;;;;;;;7.55;6.85;;;;;;;19.23;100.00;97523.16;1700432;75;756275;-70
2023/06/11 07:46:48;;;;;;;8.35;6.25;;;;;;;19.28;100.00;97517.47;1709072;75;673112;-71
2023/06/11 07:49:19;;;;;;;6.25;5.65;;;;;;;19.10;100.00;97519.13;1700718;75;749664;-70
2023/06/11 07:51:49;;;;;;;6.20;5.60;;;;;;;18.96;100.00;97525.25;1708997;75;673886;-68
2023/06/11 07:54:19;;;;;;;5.15;4.65;;;;;;;19.14;100.00;97521.56;1700070;75;750764;-71
2023/06/11 07:56:49;;;;;;;7.00;5.10;;;;;;;18.96;100.00;97526.00;1708874;75;678321;-71
2023/06/11 07:59:20;;;;;;;5.55;5.05;;;;;;;19.02;100.00;97523.84;1700249;75;742004;-73
2023/06/11 08:01:52;;;;;;;5.25;4.75;;;;;;;19.04;100.00;97528.84;1708875;75;673158;-70
2023/06/11 08:04:23;;;;;;;11.55;10.15;;;;;;;19.22;100.00;97535.53;1700398;75;738319;-72
2023/06/11 08:06:53;;;;;;;8.95;8.05;;;;;;;19.15;100.00;97534.16;1707721;75;734684;-69
2023/06/11 08:09:23;;;;;;;8.60;6.00;;;;;;;19.23;100.00;97534.25;1700265;75;758023;-69
2023/06/11 08:11:54;;;;;;;6.50;5.40;;;;;;;19.49;100.00;97534.16;1709949;75;681522;-74
2023/06/11 08:14:24;;;;;;;6.00;5.35;;;;;;;19.38;100.00;97528.84;1701027;75;753198;-74
2023/06/11 08:16:57;;;;;;;5.25;4.75;;;;;;;19.41;100.00;97536.13;1708905;75;688701;-73
2023/06/11 08:19:27;;;;;;;5.45;4.95;;;;;;;19.46;100.00;97540.81;1699100;75;847141;-75
2023/06/11 08:21:58;;;;;;;4.60;4.10;;;;;;;19.73;100.00;97538.69;1709872;75;881022;-76
2023/06/11 08:24:28;;;;;;;4.65;4.25;;;;;;;19.76;100.00;97547.97;1617542;75;7815236;-77
2023/06/11 08:26:59;;;;;;;4.65;4.25;;;;;;;19.83;100.00;97552.09;1708971;75;914283;-77
2023/06/11 08:29:29;;;;;;;4.65;4.25;;;;;;;19.89;100.00;97547.91;1703044;75;737039;-77
2023/06/11 08:32:03;;;;;;;5.30;4.80;;;;;;;19.89;100.00;97547.16;1712178;75;675893;-75
2023/06/11 08:34:34;;;;;;;4.65;4.25;;;;;;;19.90;100.00;97554.94;1703785;75;738161;-78
2023/06/11 08:37:04;;;;;;;5.30;4.80;;;;;;;19.87;100.00;97555.31;1715017;75;721909;-77
2023/06/11 08:39:34;;;;;;;5.10;4.60;;;;;;;19.90;100.00;97562.53;1692028;75;1825803;-75
2023/06/11 08:42:04;;;;;;;4.90;4.50;;;;;;;19.85;100.00;97558.63;1713679;75;936558;-75
2023/06/11 08:44:34;;;;;;;5.25;4.80;;;;;;;19.83;100.00;97552.09;1707673;75;758381;-78
2023/06/11 08:47:10;;;;;;;4.40;4.00;;;;;;;19.90;100.00;97554.94;1591118;75;10869397;-75
2023/06/11 08:49:47;;;;;;;5.35;4.65;;;;;;;19.77;100.00;97555.78;1690636;75;1703709;-73
2023/06/11 08:52:19;;;;;;;4.60;4.20;;;;;;;19.82;100.00;97556.16;1702655;75;675130;-73
2023/06/11 08:54:49;;;;;;;5.30;4.80;;;;;;;19.97;100.00;97559.81;1695506;75;1951086;-75
2023/06/11 08:57:19;;;;;;;4.90;4.40;;;;;;;19.99;100.00;97560.03;1702500;75;753278;-78
2023/06/11 08:59:50;;;;;;;5.20;4.70;;;;;;;20.19;100.00;97564.09;1708929;75;679454;-73
2023/06/11 09:02:23;;;;;;;7.85;6.95;;;;;;;20.34;100.00;97559.94;1700643;75;675156;-73
2023/06/11 09:04:53;;;;;;;7.05;6.35;;;;;;;20.23;100.00;97563.75;1708486;75;671631;-74
2023/06/11 09:07:28;;;;;;;7.00;5.40;;;;;;;20.32;100.00;97568.81;1700360;75;670777;-76
2023/06/11 09:10:09;;;;;;;5.70;5.20;;;;;;;20.38;100.00;97563.84;1706356;75;851031;-75
2023/06/11 09:12:40;;;;;;;5.75;5.20;;;;;;;20.50;100.00;97566.34;1700600;75;675752;-71
2023/06/11 09:15:12;;;;;;;5.15;4.70;;;;;;;20.39;100.00;97568.13;1707894;75;676378;-72
2023/06/11 09:17:49;;;;;;;5.50;5.00;;;;;;;20.58;100.00;97575.50;1698295;75;787087;-72
2023/06/11 09:20:20;;;;;;;7.10;6.40;;;;;;;20.50;100.00;97575.44;1699679;75;773828;-70
2023/06/11 09:22:51;;;;;;;7.90;7.20;;;;;;;20.52;100.00;97575.63;1707107;75;817624;-73
2023/06/11 09:25:21;;;;;;;6.10;5.50;;;;;;;20.28;100.00;97573.25;1699347;75;846841;-74
2023/06/11 09:27:51;;;;;;;7.70;6.90;;;;;;;20.40;100.00;97571.66;1708358;75;689746;-74
2023/06/11 09:30:22;;;;;;;;;;;;;;;20.50;100.00;97586.56;1697345;75;956703;-73
2023/06/11 09:32:55;;;;;;;14.00;12.60;;;;;;;20.49;100.00;97573.94;1709171;75;695156;-71
2023/06/11 09:35:25;;;;;;;8.80;7.90;;;;;;;20.38;100.00;97586.09;1701074;75;671584;-73
2023/06/11 09:37:56;;;;;;;8.80;7.90;;;;;;;20.35;100.00;97578.84;1708546;75;672690;-74
2023/06/11 09:40:27;;;;;;;7.80;6.50;;;;;;;20.48;100.00;97577.28;1701628;75;674925;-76
2023/06/11 09:42:57;;;;;;;7.60;6.40;;;;;;;20.52;100.00;97575.63;1709703;75;671149;-74
2023/06/11 09:45:28;;;;;;;36.60;32.85;;;;;;;20.40;100.00;97582.78;1701587;75;676109;-74
2023/06/11 09:48:01;;;;;;;25.00;22.60;;;;;;;20.38;100.00;97579.78;1709162;75;673614;-77
2023/06/11 09:50:31;;;;;;;21.10;19.20;;;;;;;20.47;100.00;97579.31;1702040;75;670734;-73
2023/06/11 09:53:04;;;;;;;23.30;20.90;;;;;;;20.38;100.00;97580.53;1708728;75;670307;-71
2023/06/11 09:55:37;;;;;;;38.85;34.65;;;;;;;20.49;100.00;97581.53;1701515;75;693717;-72
2023/06/11 09:58:07;;;;;;;25.70;22.35;;;;;;;20.46;100.00;97569.47;1708610;75;677466;-69
2023/06/11 10:00:38;;;;;;;14.10;12.60;;;;;;;20.38;100.00;97569.41;1701280;75;682373;-76
2023/06/11 10:03:11;;;;;;;15.80;14.20;;;;;;;20.51;100.00;97565.78;1705885;75;948447;-73
2023/06/11 10:05:42;;;;;;;11.80;10.60;;;;;;;20.65;100.00;97569.25;1700881;75;705131;-77
2023/06/11 10:08:17;;;;;;;9.50;8.60;;;;;;;20.55;100.00;97571.03;1708597;75;714236;-76
2023/06/11 10:10:49;;;;;;;7.25;6.55;;;;;;;20.71;100.00;97571.88;1700467;75;754501;-76
2023/06/11 10:13:31;;;;;;;8.30;7.40;;;;;;;20.73;100.00;97575.59;1709340;75;699595;-77
2023/06/11 10:16:03;;;;;;;6.35;5.75;;;;;;;20.81;100.00;97567.31;1699064;75;836004;-74
2023/06/11 10:18:36;;;;;;;5.80;4.50;;;;;;;20.95;100.00;97573.47;1710474;75;674127;-76
2023/06/11 10:21:07;;;;;;;5.35;4.85;;;;;;;20.75;100.00;97567.44;1700214;75;757647;-75
2023/06/11 10:23:39;;;;;;;5.50;5.00;;;;;;;20.58;100.00;97567.91;1708374;75;862887;-75
2023/06/11 10:26:10;;;;;;;5.60;4.60;;;;;;;20.78;100.00;97566.38;1697865;75;978296;-77
2023/06/11 10:28:48;;;;;;;5.00;4.55;;;;;;;20.76;100.00;97568.22;1709110;75;676117;-75
2023/06/11 10:31:28;;;;;;;4.30;3.90;;;;;;;20.94;100.00;97569.22;1701078;75;735410;-76
2023/06/11 10:34:07;;;;;;;3.75;3.35;;;;;;;20.94;100.00;97572.00;1702493;75;692454;-74
2023/06/11 10:36:40;;;;;;;3.55;3.25;;;;;;;20.95;100.00;97565.91;1706862;75;900668;-76
2023/06/11 10:39:12;;;;;;;5.50;5.00;;;;;;;21.10;100.00;97573.56;1701905;75;674555;-74
2023/06/11 10:41:44;;;;;;;9.65;8.75;;;;;;;20.74;100.00;97565.22;1710116;75;675138;-74
2023/06/11 10:44:17;;;;;;;9.50;8.50;;;;;;;20.90;100.00;97569.59;1701507;75;735413;-77
2023/06/11 10:46:54;;;;;;;6.65;5.95;;;;;;;21.00;100.00;97562.22;1709303;75;677748;-76
2023/06/11 10:49:30;;;;;;;6.40;5.80;;;;;;;21.17;100.00;97555.41;1700026;75;803722;-75
2023/06/11 10:52:03;;;;;;;5.40;4.90;;;;;;;21.33;100.00;97551.38;1701094;75;842931;-74
2023/06/11 10:54:37;;;;;;;9.80;8.80;;;;;;;21.01;100.00;97549.78;1695478;75;1971680;-76
2023/06/11 10:57:10;;;;;;;14.90;13.40;;;;;;;21.35;100.00;97557.13;1700978;75;675127;-74
2023/06/11 10:59:41;;;;;;;10.20;9.10;;;;;;;21.63;100.00;97544.44;1706726;75;987674;-75
2023/06/11 11:02:16;;;;;;;7.30;6.60;;;;;;;21.56;100.00;97547.94;1701954;75;680208;-75
2023/06/11 11:04:58;;;;;;;6.50;5.20;;;;;;;21.63;100.00;97541.66;1710326;75;673251;-74
2023/06/11 11:07:34;;;;;;;6.05;5.10;;;;;;;21.32;100.00;97549.16;1700253;75;744373;-76
2023/06/11 11:10:04;;;;;;;5.60;5.00;;;;;;;21.19;100.00;97553.56;1698224;75;937237;-74
2023/06/11 11:12:41;;;;;;;6.00;5.40;;;;;;;21.40;100.00;97545.09;1697468;75;1763692;-74
2023/06/11 11:15:13;;;;;;;7.55;6.35;;;;;;;21.29;100.00;97548.22;1701747;75;687285;-79
2023/06/11 11:17:45;;;;;;;6.05;5.50;;;;;;;21.66;100.00;97548.88;1709683;75;674159;-78
2023/06/11 11:20:20;;;;;;;6.40;5.80;;;;;;;21.47;100.00;97552.75;1702421;75;675350;-74
2023/06/11 11:22:56;;;;;;;6.30;5.70;;;;;;;21.67;100.00;97553.16;1709449;75;673440;-75
2023/06/11 11:25:29;;;;;;;7.85;7.15;;;;;;;21.64;100.00;97551.47;1701484;75;686311;-75
2023/06/11 11:28:00;;;;;;;5.60;5.10;;;;;;;21.86;100.00;97556.34;1709073;75;679866;-76
2023/06/11 11:30:32;;;;;;;5.60;4.75;;;;;;;22.33;100.00;97552.28;1699943;75;772774;-77
2023/06/11 11:33:03;;;;;;;6.30;5.70;;;;;;;22.04;100.00;97551.72;1707016;75;927373;-76
2023/06/11 11:35:36;;;;;;;6.40;5.80;;;;;;;22.15;100.00;97547.06;1688090;75;1799545;-74
2023/06/11 11:38:07;;;;;;;6.15;5.60;;;;;;;22.03;100.00;97547.44;1709992;75;687234;-75